sensor_id;sensor_type;location;lat;lon;timestamp;P1;durP1;ratioP1;P2;durP2;ratioP2
66384;SDS011;53426;55.872;37.462;2023-07-13T00:00:36;2.40;;;2.30;;
66384;SDS011;53426;55.872;37.462;2023-07-13T00:03:02;6.15;;;2.60;;
66384;SDS011;53426;55.872;37.462;2023-07-13T00:05:30;2.40;;;2.20;;
66384;SDS011;53426;55.872;37.462;2023-07-13T00:07:56;3.58;;;2.30;;
66384;SDS011;53426;55.872;37.462;2023-07-13T00:10:22;3.00;;;2.38;;
66384;SDS011;53426;55.872;37.462;2023-07-13T00:12:48;3.75;;;2.70;;
66384;SDS011;53426;55.872;37.462;2023-07-13T00:15:20;3.67;;;2.63;;
66384;SDS011;53426;55.872;37.462;2023-07-13T00:17:49;3.67;;;2.63;;
66384;SDS011;53426;55.872;37.462;2023-07-13T00:20:16;2.28;;;2.17;;
66384;SDS011;53426;55.872;37.462;2023-07-13T00:22:42;2.60;;;2.40;;
66384;SDS011;53426;55.872;37.462;2023-07-13T00:25:12;7.63;;;2.75;;
66384;SDS011;53426;55.872;37.462;2023-07-13T00:27:38;2.85;;;2.65;;
66384;SDS011;53426;55.872;37.462;2023-07-13T00:30:04;3.00;;;2.80;;
66384;SDS011;53426;55.872;37.462;2023-07-13T00:32:31;2.83;;;2.63;;
66384;SDS011;53426;55.872;37.462;2023-07-13T00:34:59;3.75;;;2.80;;
66384;SDS011;53426;55.872;37.462;2023-07-13T00:37:29;3.05;;;2.40;;
66384;SDS011;53426;55.872;37.462;2023-07-13T00:39:56;2.55;;;2.35;;
66384;SDS011;53426;55.872;37.462;2023-07-13T00:42:25;3.50;;;2.60;;
66384;SDS011;53426;55.872;37.462;2023-07-13T00:45:02;3.20;;;2.90;;
66384;SDS011;53426;55.872;37.462;2023-07-13T00:47:37;2.90;;;2.70;;
66384;SDS011;53426;55.872;37.462;2023-07-13T00:50:04;3.55;;;3.13;;
66384;SDS011;53426;55.872;37.462;2023-07-13T00:52:35;4.93;;;3.13;;
66384;SDS011;53426;55.872;37.462;2023-07-13T00:55:03;6.45;;;3.20;;
66384;SDS011;53426;55.872;37.462;2023-07-13T00:57:31;5.55;;;2.92;;
66384;SDS011;53426;55.872;37.462;2023-07-13T00:59:58;2.72;;;2.53;;
66384;SDS011;53426;55.872;37.462;2023-07-13T01:02:33;5.00;;;2.70;;
66384;SDS011;53426;55.872;37.462;2023-07-13T01:04:59;4.28;;;2.92;;
66384;SDS011;53426;55.872;37.462;2023-07-13T01:07:30;2.88;;;2.67;;
66384;SDS011;53426;55.872;37.462;2023-07-13T01:09:57;4.65;;;2.80;;
66384;SDS011;53426;55.872;37.462;2023-07-13T01:12:23;4.22;;;2.83;;
66384;SDS011;53426;55.872;37.462;2023-07-13T01:14:56;2.60;;;2.38;;
66384;SDS011;53426;55.872;37.462;2023-07-13T01:17:23;5.03;;;2.65;;
66384;SDS011;53426;55.872;37.462;2023-07-13T01:19:49;5.07;;;3.55;;
66384;SDS011;53426;55.872;37.462;2023-07-13T01:22:16;7.32;;;2.55;;
66384;SDS011;53426;55.872;37.462;2023-07-13T01:24:45;3.75;;;2.80;;
66384;SDS011;53426;55.872;37.462;2023-07-13T01:27:16;2.85;;;2.65;;
66384;SDS011;53426;55.872;37.462;2023-07-13T01:29:44;3.50;;;2.58;;
66384;SDS011;53426;55.872;37.462;2023-07-13T01:32:14;3.75;;;2.88;;
66384;SDS011;53426;55.872;37.462;2023-07-13T01:34:50;3.85;;;2.50;;
66384;SDS011;53426;55.872;37.462;2023-07-13T01:37:20;4.90;;;2.67;;
66384;SDS011;53426;55.872;37.462;2023-07-13T01:39:47;4.93;;;2.88;;
66384;SDS011;53426;55.872;37.462;2023-07-13T01:42:13;3.17;;;2.58;;
66384;SDS011;53426;55.872;37.462;2023-07-13T01:44:40;6.13;;;2.72;;
66384;SDS011;53426;55.872;37.462;2023-07-13T01:47:07;3.53;;;3.13;;
66384;SDS011;53426;55.872;37.462;2023-07-13T01:49:33;2.67;;;2.47;;
66384;SDS011;53426;55.872;37.462;2023-07-13T01:51:59;3.42;;;3.13;;
66384;SDS011;53426;55.872;37.462;2023-07-13T01:54:26;4.53;;;2.42;;
66384;SDS011;53426;55.872;37.462;2023-07-13T01:56:51;6.10;;;3.90;;
66384;SDS011;53426;55.872;37.462;2023-07-13T01:59:17;5.68;;;2.75;;
66384;SDS011;53426;55.872;37.462;2023-07-13T02:01:43;2.70;;;2.50;;
66384;SDS011;53426;55.872;37.462;2023-07-13T02:04:09;4.45;;;2.67;;
66384;SDS011;53426;55.872;37.462;2023-07-13T02:06:36;3.25;;;2.72;;
66384;SDS011;53426;55.872;37.462;2023-07-13T02:09:02;2.80;;;2.60;;
66384;SDS011;53426;55.872;37.462;2023-07-13T02:11:28;3.25;;;2.30;;
66384;SDS011;53426;55.872;37.462;2023-07-13T02:14:02;4.47;;;2.38;;
66384;SDS011;53426;55.872;37.462;2023-07-13T02:16:31;3.30;;;2.88;;
66384;SDS011;53426;55.872;37.462;2023-07-13T02:18:58;8.98;;;2.63;;
66384;SDS011;53426;55.872;37.462;2023-07-13T02:21:24;3.67;;;2.47;;
66384;SDS011;53426;55.872;37.462;2023-07-13T02:23:51;4.35;;;2.50;;
66384;SDS011;53426;55.872;37.462;2023-07-13T02:26:18;5.53;;;2.65;;
66384;SDS011;53426;55.872;37.462;2023-07-13T02:28:44;5.63;;;3.00;;
66384;SDS011;53426;55.872;37.462;2023-07-13T02:31:12;2.90;;;2.60;;
66384;SDS011;53426;55.872;37.462;2023-07-13T02:33:40;2.70;;;2.50;;
66384;SDS011;53426;55.872;37.462;2023-07-13T02:36:06;3.00;;;2.70;;
66384;SDS011;53426;55.872;37.462;2023-07-13T02:38:33;3.00;;;2.60;;
66384;SDS011;53426;55.872;37.462;2023-07-13T02:41:03;4.03;;;3.22;;
66384;SDS011;53426;55.872;37.462;2023-07-13T02:43:29;3.28;;;2.63;;
66384;SDS011;53426;55.872;37.462;2023-07-13T02:45:55;4.20;;;2.80;;
66384;SDS011;53426;55.872;37.462;2023-07-13T02:48:21;4.43;;;2.50;;
66384;SDS011;53426;55.872;37.462;2023-07-13T02:50:50;6.03;;;2.63;;
66384;SDS011;53426;55.872;37.462;2023-07-13T02:53:15;4.53;;;2.70;;
66384;SDS011;53426;55.872;37.462;2023-07-13T02:55:42;3.58;;;2.38;;
66384;SDS011;53426;55.872;37.462;2023-07-13T02:58:13;3.10;;;2.70;;
66384;SDS011;53426;55.872;37.462;2023-07-13T03:00:43;3.05;;;2.83;;
66384;SDS011;53426;55.872;37.462;2023-07-13T03:03:12;6.53;;;2.78;;
66384;SDS011;53426;55.872;37.462;2023-07-13T03:05:41;5.82;;;2.63;;
66384;SDS011;53426;55.872;37.462;2023-07-13T03:08:10;3.08;;;2.88;;
66384;SDS011;53426;55.872;37.462;2023-07-13T03:10:39;4.90;;;3.47;;
66384;SDS011;53426;55.872;37.462;2023-07-13T03:13:08;3.22;;;2.42;;
66384;SDS011;53426;55.872;37.462;2023-07-13T03:15:34;4.10;;;2.70;;
66384;SDS011;53426;55.872;37.462;2023-07-13T03:18:00;6.10;;;2.92;;
66384;SDS011;53426;55.872;37.462;2023-07-13T03:20:26;3.65;;;2.90;;
66384;SDS011;53426;55.872;37.462;2023-07-13T03:22:52;4.07;;;2.90;;
66384;SDS011;53426;55.872;37.462;2023-07-13T03:25:19;5.53;;;2.92;;
66384;SDS011;53426;55.872;37.462;2023-07-13T03:27:45;6.55;;;2.45;;
66384;SDS011;53426;55.872;37.462;2023-07-13T03:30:11;5.00;;;2.50;;
66384;SDS011;53426;55.872;37.462;2023-07-13T03:32:37;6.85;;;2.90;;
66384;SDS011;53426;55.872;37.462;2023-07-13T03:35:05;4.82;;;4.38;;
66384;SDS011;53426;55.872;37.462;2023-07-13T03:37:31;4.05;;;3.05;;
66384;SDS011;53426;55.872;37.462;2023-07-13T03:39:57;4.03;;;2.70;;
66384;SDS011;53426;55.872;37.462;2023-07-13T03:42:25;3.92;;;2.97;;
66384;SDS011;53426;55.872;37.462;2023-07-13T03:44:53;4.53;;;2.88;;
66384;SDS011;53426;55.872;37.462;2023-07-13T03:47:21;9.10;;;3.03;;
66384;SDS011;53426;55.872;37.462;2023-07-13T03:49:47;3.70;;;3.10;;
66384;SDS011;53426;55.872;37.462;2023-07-13T03:52:13;6.95;;;2.92;;
66384;SDS011;53426;55.872;37.462;2023-07-13T03:54:41;3.88;;;3.00;;
66384;SDS011;53426;55.872;37.462;2023-07-13T03:57:07;7.00;;;3.20;;
66384;SDS011;53426;55.872;37.462;2023-07-13T03:59:35;6.40;;;2.80;;
66384;SDS011;53426;55.872;37.462;2023-07-13T04:02:01;7.45;;;2.80;;
66384;SDS011;53426;55.872;37.462;2023-07-13T04:04:32;10.10;;;2.35;;
66384;SDS011;53426;55.872;37.462;2023-07-13T04:06:59;4.55;;;2.42;;
66384;SDS011;53426;55.872;37.462;2023-07-13T04:18:28;6.95;;;2.97;;
66384;SDS011;53426;55.872;37.462;2023-07-13T04:20:55;3.22;;;2.88;;
66384;SDS011;53426;55.872;37.462;2023-07-13T04:23:23;3.63;;;2.40;;
66384;SDS011;53426;55.872;37.462;2023-07-13T04:25:49;3.00;;;2.75;;
66384;SDS011;53426;55.872;37.462;2023-07-13T04:28:19;10.30;;;3.20;;
66384;SDS011;53426;55.872;37.462;2023-07-13T04:30:46;2.67;;;2.42;;
66384;SDS011;53426;55.872;37.462;2023-07-13T04:33:15;3.45;;;3.15;;
66384;SDS011;53426;55.872;37.462;2023-07-13T04:35:51;3.47;;;2.75;;
66384;SDS011;53426;55.872;37.462;2023-07-13T04:38:24;5.47;;;2.72;;
66384;SDS011;53426;55.872;37.462;2023-07-13T04:41:07;3.88;;;2.60;;
66384;SDS011;53426;55.872;37.462;2023-07-13T04:43:38;4.03;;;2.80;;
66384;SDS011;53426;55.872;37.462;2023-07-13T04:46:08;7.90;;;2.83;;
66384;SDS011;53426;55.872;37.462;2023-07-13T04:49:27;12.43;;;2.78;;
66384;SDS011;53426;55.872;37.462;2023-07-13T04:51:52;3.58;;;2.42;;
66384;SDS011;53426;55.872;37.462;2023-07-13T04:54:20;9.20;;;2.70;;
66384;SDS011;53426;55.872;37.462;2023-07-13T04:56:47;3.88;;;3.03;;
66384;SDS011;53426;55.872;37.462;2023-07-13T04:59:13;5.63;;;2.78;;
66384;SDS011;53426;55.872;37.462;2023-07-13T05:09:52;3.10;;;2.90;;
66384;SDS011;53426;55.872;37.462;2023-07-13T05:18:11;7.30;;;2.35;;
66384;SDS011;53426;55.872;37.462;2023-07-13T05:20:37;3.47;;;2.63;;
66384;SDS011;53426;55.872;37.462;2023-07-13T05:23:04;3.50;;;2.38;;
66384;SDS011;53426;55.872;37.462;2023-07-13T05:25:31;4.45;;;2.83;;
66384;SDS011;53426;55.872;37.462;2023-07-13T05:27:57;3.90;;;2.50;;
66384;SDS011;53426;55.872;37.462;2023-07-13T05:30:24;3.50;;;2.40;;
66384;SDS011;53426;55.872;37.462;2023-07-13T05:32:51;4.60;;;3.03;;
66384;SDS011;53426;55.872;37.462;2023-07-13T05:35:17;3.00;;;2.30;;
66384;SDS011;53426;55.872;37.462;2023-07-13T05:37:44;3.45;;;2.75;;
66384;SDS011;53426;55.872;37.462;2023-07-13T05:40:10;2.63;;;2.42;;
66384;SDS011;53426;55.872;37.462;2023-07-13T05:42:36;2.72;;;2.35;;
66384;SDS011;53426;55.872;37.462;2023-07-13T05:45:02;4.60;;;2.10;;
66384;SDS011;53426;55.872;37.462;2023-07-13T05:47:30;8.52;;;2.83;;
66384;SDS011;53426;55.872;37.462;2023-07-13T05:49:57;6.43;;;2.60;;
66384;SDS011;53426;55.872;37.462;2023-07-13T05:52:23;4.80;;;2.55;;
66384;SDS011;53426;55.872;37.462;2023-07-13T05:54:49;3.70;;;2.40;;
66384;SDS011;53426;55.872;37.462;2023-07-13T05:57:16;11.50;;;2.53;;
66384;SDS011;53426;55.872;37.462;2023-07-13T05:59:42;2.75;;;2.55;;
66384;SDS011;53426;55.872;37.462;2023-07-13T06:02:08;3.50;;;2.38;;
66384;SDS011;53426;55.872;37.462;2023-07-13T06:04:36;3.20;;;2.10;;
66384;SDS011;53426;55.872;37.462;2023-07-13T06:07:02;4.88;;;2.40;;
66384;SDS011;53426;55.872;37.462;2023-07-13T06:09:28;12.98;;;2.70;;
66384;SDS011;53426;55.872;37.462;2023-07-13T06:11:54;7.32;;;2.25;;
66384;SDS011;53426;55.872;37.462;2023-07-13T06:14:19;4.45;;;2.65;;
66384;SDS011;53426;55.872;37.462;2023-07-13T06:16:45;2.70;;;2.50;;
66384;SDS011;53426;55.872;37.462;2023-07-13T06:19:11;3.05;;;2.63;;
66384;SDS011;53426;55.872;37.462;2023-07-13T06:21:37;3.22;;;2.63;;
66384;SDS011;53426;55.872;37.462;2023-07-13T06:24:03;3.78;;;2.38;;
66384;SDS011;53426;55.872;37.462;2023-07-13T06:26:29;7.47;;;3.03;;
66384;SDS011;53426;55.872;37.462;2023-07-13T06:28:55;2.95;;;2.33;;
66384;SDS011;53426;55.872;37.462;2023-07-13T06:31:21;8.73;;;2.50;;
66384;SDS011;53426;55.872;37.462;2023-07-13T06:33:47;11.73;;;2.33;;
66384;SDS011;53426;55.872;37.462;2023-07-13T06:36:14;4.00;;;2.15;;
66384;SDS011;53426;55.872;37.462;2023-07-13T06:38:40;3.35;;;2.25;;
66384;SDS011;53426;55.872;37.462;2023-07-13T06:41:07;7.00;;;2.33;;
66384;SDS011;53426;55.872;37.462;2023-07-13T06:43:33;3.05;;;2.47;;
66384;SDS011;53426;55.872;37.462;2023-07-13T06:45:59;7.47;;;2.15;;
66384;SDS011;53426;55.872;37.462;2023-07-13T06:48:26;4.43;;;2.47;;
66384;SDS011;53426;55.872;37.462;2023-07-13T06:50:52;2.35;;;2.13;;
66384;SDS011;53426;55.872;37.462;2023-07-13T06:53:19;9.70;;;2.60;;
66384;SDS011;53426;55.872;37.462;2023-07-13T06:55:46;2.42;;;2.00;;
66384;SDS011;53426;55.872;37.462;2023-07-13T06:58:12;4.15;;;2.05;;
66384;SDS011;53426;55.872;37.462;2023-07-13T07:00:38;4.38;;;2.33;;
66384;SDS011;53426;55.872;37.462;2023-07-13T07:03:05;4.97;;;2.20;;
66384;SDS011;53426;55.872;37.462;2023-07-13T07:05:31;3.08;;;2.78;;
66384;SDS011;53426;55.872;37.462;2023-07-13T07:07:58;4.45;;;2.40;;
66384;SDS011;53426;55.872;37.462;2023-07-13T07:10:23;3.85;;;2.78;;
66384;SDS011;53426;55.872;37.462;2023-07-13T07:12:49;6.30;;;2.38;;
66384;SDS011;53426;55.872;37.462;2023-07-13T07:15:15;3.85;;;2.92;;
66384;SDS011;53426;55.872;37.462;2023-07-13T07:17:42;4.47;;;2.25;;
66384;SDS011;53426;55.872;37.462;2023-07-13T07:20:09;5.88;;;2.70;;
66384;SDS011;53426;55.872;37.462;2023-07-13T07:22:36;9.60;;;2.67;;
66384;SDS011;53426;55.872;37.462;2023-07-13T07:25:02;5.55;;;2.30;;
66384;SDS011;53426;55.872;37.462;2023-07-13T07:27:29;2.35;;;2.15;;
66384;SDS011;53426;55.872;37.462;2023-07-13T07:29:55;2.83;;;2.15;;
66384;SDS011;53426;55.872;37.462;2023-07-13T07:32:23;2.65;;;2.35;;
66384;SDS011;53426;55.872;37.462;2023-07-13T07:34:49;4.38;;;2.83;;
66384;SDS011;53426;55.872;37.462;2023-07-13T07:37:15;3.17;;;2.50;;
66384;SDS011;53426;55.872;37.462;2023-07-13T07:39:42;9.02;;;2.35;;
66384;SDS011;53426;55.872;37.462;2023-07-13T07:42:09;3.28;;;2.90;;
66384;SDS011;53426;55.872;37.462;2023-07-13T07:44:35;3.30;;;2.85;;
66384;SDS011;53426;55.872;37.462;2023-07-13T07:47:00;3.75;;;2.83;;
66384;SDS011;53426;55.872;37.462;2023-07-13T07:49:26;3.30;;;2.70;;
66384;SDS011;53426;55.872;37.462;2023-07-13T07:51:52;4.25;;;2.70;;
66384;SDS011;53426;55.872;37.462;2023-07-13T07:54:18;9.18;;;2.97;;
66384;SDS011;53426;55.872;37.462;2023-07-13T07:56:44;5.75;;;3.00;;
66384;SDS011;53426;55.872;37.462;2023-07-13T07:59:11;3.90;;;2.47;;
66384;SDS011;53426;55.872;37.462;2023-07-13T08:01:37;4.63;;;2.55;;
66384;SDS011;53426;55.872;37.462;2023-07-13T08:04:03;5.30;;;2.60;;
66384;SDS011;53426;55.872;37.462;2023-07-13T08:06:31;4.57;;;2.83;;
66384;SDS011;53426;55.872;37.462;2023-07-13T08:08:59;4.72;;;2.67;;
66384;SDS011;53426;55.872;37.462;2023-07-13T08:11:26;3.10;;;2.65;;
66384;SDS011;53426;55.872;37.462;2023-07-13T08:13:52;5.65;;;2.78;;
66384;SDS011;53426;55.872;37.462;2023-07-13T08:16:18;4.00;;;2.70;;
66384;SDS011;53426;55.872;37.462;2023-07-13T08:18:45;7.57;;;2.90;;
66384;SDS011;53426;55.872;37.462;2023-07-13T08:21:11;3.15;;;2.85;;
66384;SDS011;53426;55.872;37.462;2023-07-13T08:23:36;4.28;;;2.83;;
66384;SDS011;53426;55.872;37.462;2023-07-13T08:26:03;5.20;;;2.80;;
66384;SDS011;53426;55.872;37.462;2023-07-13T08:28:29;4.38;;;2.75;;
66384;SDS011;53426;55.872;37.462;2023-07-13T08:31:00;12.25;;;2.97;;
66384;SDS011;53426;55.872;37.462;2023-07-13T08:33:26;8.18;;;2.55;;
66384;SDS011;53426;55.872;37.462;2023-07-13T08:35:52;5.20;;;2.72;;
66384;SDS011;53426;55.872;37.462;2023-07-13T08:38:18;4.88;;;2.65;;
66384;SDS011;53426;55.872;37.462;2023-07-13T08:40:45;5.90;;;2.60;;
66384;SDS011;53426;55.872;37.462;2023-07-13T08:43:18;3.22;;;2.92;;
66384;SDS011;53426;55.872;37.462;2023-07-13T08:46:01;5.25;;;2.83;;
66384;SDS011;53426;55.872;37.462;2023-07-13T08:48:35;10.13;;;2.97;;
66384;SDS011;53426;55.872;37.462;2023-07-13T08:53:58;7.20;;;2.80;;
66384;SDS011;53426;55.872;37.462;2023-07-13T08:56:28;4.40;;;2.80;;
66384;SDS011;53426;55.872;37.462;2023-07-13T08:59:09;17.27;;;3.08;;
66384;SDS011;53426;55.872;37.462;2023-07-13T09:01:47;3.95;;;2.83;;
66384;SDS011;53426;55.872;37.462;2023-07-13T09:04:17;6.03;;;3.03;;
66384;SDS011;53426;55.872;37.462;2023-07-13T09:09:26;6.50;;;2.50;;
66384;SDS011;53426;55.872;37.462;2023-07-13T09:12:07;6.03;;;2.83;;
66384;SDS011;53426;55.872;37.462;2023-07-13T09:14:49;3.30;;;2.60;;
66384;SDS011;53426;55.872;37.462;2023-07-13T09:17:41;2.92;;;2.63;;
66384;SDS011;53426;55.872;37.462;2023-07-13T09:23:07;3.80;;;3.13;;
66384;SDS011;53426;55.872;37.462;2023-07-13T09:25:38;3.13;;;2.60;;
66384;SDS011;53426;55.872;37.462;2023-07-13T09:28:16;2.70;;;2.50;;
66384;SDS011;53426;55.872;37.462;2023-07-13T09:33:40;3.88;;;3.22;;
66384;SDS011;53426;55.872;37.462;2023-07-13T09:36:17;4.35;;;3.45;;
66384;SDS011;53426;55.872;37.462;2023-07-13T09:38:46;3.80;;;3.00;;
66384;SDS011;53426;55.872;37.462;2023-07-13T09:49:43;7.55;;;3.65;;
66384;SDS011;53426;55.872;37.462;2023-07-13T09:52:12;5.15;;;3.42;;
66384;SDS011;53426;55.872;37.462;2023-07-13T09:54:43;6.40;;;3.60;;
66384;SDS011;53426;55.872;37.462;2023-07-13T09:57:14;8.65;;;4.13;;
66384;SDS011;53426;55.872;37.462;2023-07-13T09:59:49;8.48;;;3.58;;
66384;SDS011;53426;55.872;37.462;2023-07-13T10:05:00;3.78;;;2.90;;
66384;SDS011;53426;55.872;37.462;2023-07-13T10:07:53;5.38;;;3.60;;
66384;SDS011;53426;55.872;37.462;2023-07-13T10:10:22;5.72;;;3.67;;
66384;SDS011;53426;55.872;37.462;2023-07-13T10:12:49;7.20;;;3.58;;
66384;SDS011;53426;55.872;37.462;2023-07-13T10:15:21;4.80;;;3.15;;
66384;SDS011;53426;55.872;37.462;2023-07-13T10:17:49;3.40;;;3.10;;
66384;SDS011;53426;55.872;37.462;2023-07-13T10:20:17;3.60;;;3.30;;
66384;SDS011;53426;55.872;37.462;2023-07-13T10:23:04;6.18;;;3.50;;
66384;SDS011;53426;55.872;37.462;2023-07-13T10:25:37;7.32;;;3.50;;
66384;SDS011;53426;55.872;37.462;2023-07-13T10:28:27;6.45;;;3.60;;
66384;SDS011;53426;55.872;37.462;2023-07-13T10:30:57;6.28;;;3.63;;
66384;SDS011;53426;55.872;37.462;2023-07-13T10:33:25;8.18;;;3.70;;
66384;SDS011;53426;55.872;37.462;2023-07-13T10:35:54;3.92;;;3.28;;
66384;SDS011;53426;55.872;37.462;2023-07-13T10:40:58;8.75;;;3.40;;
66384;SDS011;53426;55.872;37.462;2023-07-13T10:43:39;5.53;;;3.03;;
66384;SDS011;53426;55.872;37.462;2023-07-13T10:46:10;7.78;;;3.58;;
66384;SDS011;53426;55.872;37.462;2023-07-13T10:48:38;4.45;;;2.95;;
66384;SDS011;53426;55.872;37.462;2023-07-13T10:51:07;5.07;;;3.20;;
66384;SDS011;53426;55.872;37.462;2023-07-13T10:53:37;5.38;;;3.33;;
66384;SDS011;53426;55.872;37.462;2023-07-13T10:56:19;5.93;;;3.10;;
66384;SDS011;53426;55.872;37.462;2023-07-13T11:04:04;5.03;;;2.97;;
66384;SDS011;53426;55.872;37.462;2023-07-13T11:06:34;4.88;;;3.42;;
66384;SDS011;53426;55.872;37.462;2023-07-13T11:22:42;3.78;;;3.40;;
66384;SDS011;53426;55.872;37.462;2023-07-13T11:32:39;6.68;;;3.33;;
66384;SDS011;53426;55.872;37.462;2023-07-13T11:35:09;8.70;;;3.25;;
66384;SDS011;53426;55.872;37.462;2023-07-13T11:37:42;5.30;;;3.33;;
66384;SDS011;53426;55.872;37.462;2023-07-13T11:40:13;5.35;;;3.60;;
66384;SDS011;53426;55.872;37.462;2023-07-13T11:42:40;4.60;;;3.63;;
66384;SDS011;53426;55.872;37.462;2023-07-13T11:45:16;6.32;;;3.63;;
66384;SDS011;53426;55.872;37.462;2023-07-13T11:47:45;6.30;;;3.67;;
66384;SDS011;53426;55.872;37.462;2023-07-13T11:50:21;3.75;;;3.13;;
66384;SDS011;53426;55.872;37.462;2023-07-13T11:52:49;4.65;;;4.15;;
66384;SDS011;53426;55.872;37.462;2023-07-13T11:55:20;4.80;;;3.42;;
66384;SDS011;53426;55.872;37.462;2023-07-13T11:57:50;7.53;;;3.80;;
66384;SDS011;53426;55.872;37.462;2023-07-13T12:02:55;8.20;;;4.15;;
66384;SDS011;53426;55.872;37.462;2023-07-13T12:05:24;9.00;;;3.72;;
66384;SDS011;53426;55.872;37.462;2023-07-13T12:07:51;9.00;;;3.88;;
66384;SDS011;53426;55.872;37.462;2023-07-13T12:10:19;5.75;;;3.85;;
66384;SDS011;53426;55.872;37.462;2023-07-13T12:12:58;6.50;;;3.78;;
66384;SDS011;53426;55.872;37.462;2023-07-13T12:15:40;4.47;;;4.00;;
66384;SDS011;53426;55.872;37.462;2023-07-13T12:18:13;6.18;;;4.20;;
66384;SDS011;53426;55.872;37.462;2023-07-13T12:20:47;8.65;;;4.70;;
66384;SDS011;53426;55.872;37.462;2023-07-13T12:23:23;7.13;;;4.07;;
66384;SDS011;53426;55.872;37.462;2023-07-13T12:26:02;7.03;;;4.20;;
66384;SDS011;53426;55.872;37.462;2023-07-13T12:30:59;7.82;;;4.22;;
66384;SDS011;53426;55.872;37.462;2023-07-13T12:33:29;4.70;;;3.45;;
66384;SDS011;53426;55.872;37.462;2023-07-13T12:36:03;6.30;;;4.13;;
66384;SDS011;53426;55.872;37.462;2023-07-13T12:38:32;15.68;;;4.15;;
66384;SDS011;53426;55.872;37.462;2023-07-13T12:41:01;4.47;;;4.05;;
66384;SDS011;53426;55.872;37.462;2023-07-13T12:43:28;6.53;;;4.00;;
66384;SDS011;53426;55.872;37.462;2023-07-13T12:46:04;6.60;;;4.27;;
66384;SDS011;53426;55.872;37.462;2023-07-13T12:48:41;4.85;;;3.97;;
66384;SDS011;53426;55.872;37.462;2023-07-13T12:51:12;8.88;;;4.80;;
66384;SDS011;53426;55.872;37.462;2023-07-13T12:53:40;6.43;;;3.95;;
66384;SDS011;53426;55.872;37.462;2023-07-13T12:56:08;5.22;;;3.75;;
66384;SDS011;53426;55.872;37.462;2023-07-13T12:58:45;6.20;;;4.10;;
66384;SDS011;53426;55.872;37.462;2023-07-13T13:01:14;7.43;;;4.50;;
66384;SDS011;53426;55.872;37.462;2023-07-13T13:03:46;4.05;;;3.65;;
66384;SDS011;53426;55.872;37.462;2023-07-13T13:08:45;5.72;;;3.80;;
66384;SDS011;53426;55.872;37.462;2023-07-13T13:11:14;7.20;;;4.20;;
66384;SDS011;53426;55.872;37.462;2023-07-13T13:13:42;6.82;;;3.70;;
66384;SDS011;53426;55.872;37.462;2023-07-13T13:18:48;4.30;;;3.90;;
66384;SDS011;53426;55.872;37.462;2023-07-13T13:21:16;5.22;;;4.25;;
66384;SDS011;53426;55.872;37.462;2023-07-13T13:23:43;4.68;;;4.15;;
66384;SDS011;53426;55.872;37.462;2023-07-13T13:26:14;5.30;;;3.80;;
66384;SDS011;53426;55.872;37.462;2023-07-13T13:28:45;7.55;;;4.03;;
66384;SDS011;53426;55.872;37.462;2023-07-13T13:31:13;9.57;;;3.90;;
66384;SDS011;53426;55.872;37.462;2023-07-13T13:33:42;4.63;;;3.88;;
66384;SDS011;53426;55.872;37.462;2023-07-13T13:36:18;6.78;;;4.70;;
66384;SDS011;53426;55.872;37.462;2023-07-13T13:38:47;5.82;;;4.95;;
66384;SDS011;53426;55.872;37.462;2023-07-13T13:41:16;6.93;;;3.97;;
66384;SDS011;53426;55.872;37.462;2023-07-13T13:43:42;13.70;;;5.47;;
66384;SDS011;53426;55.872;37.462;2023-07-13T13:46:13;5.28;;;4.10;;
66384;SDS011;53426;55.872;37.462;2023-07-13T13:48:42;8.88;;;3.38;;
66384;SDS011;53426;55.872;37.462;2023-07-13T13:53:44;10.48;;;6.07;;
66384;SDS011;53426;55.872;37.462;2023-07-13T13:56:11;6.45;;;4.20;;
66384;SDS011;53426;55.872;37.462;2023-07-13T13:58:38;6.15;;;3.60;;
66384;SDS011;53426;55.872;37.462;2023-07-13T14:01:04;7.15;;;4.03;;
66384;SDS011;53426;55.872;37.462;2023-07-13T14:03:33;7.85;;;3.70;;
66384;SDS011;53426;55.872;37.462;2023-07-13T14:05:59;3.80;;;3.50;;
66384;SDS011;53426;55.872;37.462;2023-07-13T14:08:25;7.25;;;3.85;;
66384;SDS011;53426;55.872;37.462;2023-07-13T14:10:53;4.00;;;3.70;;
66384;SDS011;53426;55.872;37.462;2023-07-13T14:13:22;4.60;;;3.83;;
66384;SDS011;53426;55.872;37.462;2023-07-13T14:15:52;6.70;;;4.03;;
66384;SDS011;53426;55.872;37.462;2023-07-13T14:18:19;5.97;;;3.30;;
66384;SDS011;53426;55.872;37.462;2023-07-13T14:20:45;4.32;;;3.47;;
66384;SDS011;53426;55.872;37.462;2023-07-13T14:23:15;5.57;;;3.88;;
66384;SDS011;53426;55.872;37.462;2023-07-13T14:25:45;6.25;;;4.38;;
66384;SDS011;53426;55.872;37.462;2023-07-13T14:28:31;5.90;;;3.83;;
66384;SDS011;53426;55.872;37.462;2023-07-13T14:33:53;4.47;;;3.80;;
66384;SDS011;53426;55.872;37.462;2023-07-13T14:39:14;4.63;;;3.58;;
66384;SDS011;53426;55.872;37.462;2023-07-13T14:44:38;7.28;;;4.93;;
66384;SDS011;53426;55.872;37.462;2023-07-13T14:47:05;7.03;;;4.05;;
66384;SDS011;53426;55.872;37.462;2023-07-13T14:49:42;9.73;;;3.20;;
66384;SDS011;53426;55.872;37.462;2023-07-13T14:52:11;4.90;;;3.40;;
66384;SDS011;53426;55.872;37.462;2023-07-13T14:54:39;6.13;;;4.35;;
66384;SDS011;53426;55.872;37.462;2023-07-13T14:57:09;5.07;;;3.67;;
66384;SDS011;53426;55.872;37.462;2023-07-13T14:59:38;4.53;;;3.80;;
66384;SDS011;53426;55.872;37.462;2023-07-13T15:02:24;5.93;;;3.40;;
66384;SDS011;53426;55.872;37.462;2023-07-13T15:04:59;10.73;;;4.30;;
66384;SDS011;53426;55.872;37.462;2023-07-13T15:07:25;7.57;;;3.30;;
66384;SDS011;53426;55.872;37.462;2023-07-13T15:09:51;3.83;;;3.10;;
66384;SDS011;53426;55.872;37.462;2023-07-13T15:12:18;4.95;;;3.33;;
66384;SDS011;53426;55.872;37.462;2023-07-13T15:14:45;5.32;;;4.07;;
66384;SDS011;53426;55.872;37.462;2023-07-13T15:23:11;11.23;;;4.20;;
66384;SDS011;53426;55.872;37.462;2023-07-13T15:25:40;12.30;;;4.65;;
66384;SDS011;53426;55.872;37.462;2023-07-13T15:28:09;6.60;;;3.75;;
66384;SDS011;53426;55.872;37.462;2023-07-13T15:31:22;7.75;;;4.97;;
66384;SDS011;53426;55.872;37.462;2023-07-13T15:34:00;7.82;;;4.40;;
66384;SDS011;53426;55.872;37.462;2023-07-13T15:36:29;5.38;;;3.85;;
66384;SDS011;53426;55.872;37.462;2023-07-13T15:38:55;8.55;;;4.55;;
66384;SDS011;53426;55.872;37.462;2023-07-13T15:41:23;5.15;;;4.03;;
66384;SDS011;53426;55.872;37.462;2023-07-13T15:43:57;7.72;;;4.15;;
66384;SDS011;53426;55.872;37.462;2023-07-13T15:46:26;5.80;;;4.07;;
66384;SDS011;53426;55.872;37.462;2023-07-13T15:48:57;5.25;;;4.10;;
66384;SDS011;53426;55.872;37.462;2023-07-13T15:51:28;6.57;;;3.63;;
66384;SDS011;53426;55.872;37.462;2023-07-13T15:53:57;4.95;;;4.43;;
66384;SDS011;53426;55.872;37.462;2023-07-13T15:56:29;4.30;;;3.90;;
66384;SDS011;53426;55.872;37.462;2023-07-13T16:03:28;6.22;;;3.88;;
66384;SDS011;53426;55.872;37.462;2023-07-13T16:09:23;4.60;;;4.07;;
66384;SDS011;53426;55.872;37.462;2023-07-13T16:11:51;6.82;;;3.65;;
66384;SDS011;53426;55.872;37.462;2023-07-13T16:17:33;7.07;;;4.20;;
66384;SDS011;53426;55.872;37.462;2023-07-13T16:20:22;5.65;;;4.30;;
66384;SDS011;53426;55.872;37.462;2023-07-13T16:22:50;11.52;;;4.57;;
66384;SDS011;53426;55.872;37.462;2023-07-13T16:25:20;6.00;;;4.30;;
66384;SDS011;53426;55.872;37.462;2023-07-13T16:27:49;5.35;;;4.18;;
66384;SDS011;53426;55.872;37.462;2023-07-13T16:33:36;6.03;;;4.03;;
66384;SDS011;53426;55.872;37.462;2023-07-13T16:36:08;7.40;;;4.60;;
66384;SDS011;53426;55.872;37.462;2023-07-13T16:41:36;5.25;;;4.30;;
66384;SDS011;53426;55.872;37.462;2023-07-13T16:44:04;5.00;;;4.10;;